Time;durP1;ratioP1;P1;durP2;ratioP2;P2;SDS_P1;SDS_P2;PMS_P1;PMS_P2;Temp;Humidity;BMP_temperature;BMP_pressure;BME280_temperature;BME280_humidity;BME280_pressure;Samples;Min_cycle;Max_cycle;Signal;HPM_P1;HPM_P2
2024/04/10 00:01:44;;;;;;;12.20;5.20;;;;;;;14.90;67.96;98530.51;227274;1267;22552;-75
2024/04/10 00:06:46;;;;;;;10.80;5.10;;;;;;;14.98;68.26;98533.44;227347;1267;22543;-75
2024/04/10 00:11:47;;;;;;;11.90;5.60;;;;;;;15.02;68.21;98538.75;227366;1270;22547;-75
2024/04/10 00:16:49;;;;;;;10.70;5.60;;;;;;;15.01;68.22;98541.34;227169;1272;22638;-75
2024/04/10 00:21:55;;;;;;;11.60;5.70;;;;;;;14.99;68.24;98547.94;227217;1272;22637;-75
2024/04/10 00:26:57;;;;;;;10.20;4.70;;;;;;;14.99;68.47;98550.05;227320;1267;25968;-75
2024/04/10 00:31:59;;;;;;;11.50;5.00;;;;;;;14.97;68.67;98558.84;227344;1264;22547;-76
2024/04/10 00:37:01;;;;;;;14.30;5.00;;;;;;;14.94;69.00;98566.52;227317;1270;22539;-74
2024/04/10 00:42:03;;;;;;;10.00;4.70;;;;;;;14.92;68.84;98566.95;227170;1272;22527;-75
2024/04/10 00:47:05;;;;;;;9.30;4.50;;;;;;;14.89;69.03;98572.42;227288;1270;22543;-75
2024/04/10 00:52:08;;;;;;;13.40;5.00;;;;;;;14.85;69.32;98583.55;227335;1266;22512;-75
2024/04/10 00:57:10;;;;;;;13.90;5.70;;;;;;;14.79;69.38;98581.04;227289;1270;22573;-75
2024/04/10 01:02:11;;;;;;;9.60;5.40;;;;;;;14.75;69.61;98595.36;227365;1272;22551;-75
2024/04/10 01:07:13;;;;;;;10.80;4.90;;;;;;;14.69;69.80;98603.23;227318;1267;22593;-75
2024/04/10 01:12:15;;;;;;;13.80;5.10;;;;;;;14.66;70.02;98612.91;227139;1269;22542;-76
2024/04/10 01:17:17;;;;;;;13.10;4.30;;;;;;;14.64;70.72;98617.30;226977;1269;462085;-76
2024/04/10 01:22:19;;;;;;;11.20;4.40;;;;;;;14.62;71.00;98631.52;227170;1267;22546;-76
2024/04/10 01:27:20;;;;;;;9.40;3.60;;;;;;;14.64;71.25;98639.00;227395;1272;22774;-75
2024/04/10 01:32:22;;;;;;;11.90;4.10;;;;;;;14.65;71.62;98645.90;227337;1270;25278;-76
2024/04/10 01:37:24;;;;;;;9.30;3.20;;;;;;;14.68;71.94;98652.49;227156;1272;22539;-75
2024/04/10 01:42:26;;;;;;;10.10;3.70;;;;;;;14.77;72.70;98654.59;227296;1269;22566;-76
2024/04/10 01:47:28;;;;;;;9.70;3.50;;;;;;;14.90;73.08;98668.39;227292;1272;24222;-75
2024/04/10 01:52:30;;;;;;;10.30;3.90;;;;;;;15.02;73.01;98674.30;227342;1267;23811;-75
2024/04/10 01:57:31;;;;;;;8.60;3.10;;;;;;;15.12;72.97;98672.77;227343;1272;24263;-75
2024/04/10 02:02:33;;;;;;;7.50;3.10;;;;;;;15.23;73.26;98679.42;227315;1267;22549;-75
2024/04/10 02:07:36;;;;;;;11.50;3.70;;;;;;;15.34;73.36;98682.73;227307;1270;25246;-75
2024/04/10 02:12:37;;;;;;;6.00;2.70;;;;;;;15.44;73.18;98684.42;227125;1272;22667;-75
2024/04/10 02:17:39;;;;;;;10.40;3.90;;;;;;;15.53;73.35;98691.16;227372;1270;22551;-75
2024/04/10 02:22:42;;;;;;;9.70;3.20;;;;;;;15.62;73.23;98688.11;227285;1269;22550;-75
2024/04/10 02:27:44;;;;;;;7.80;3.40;;;;;;;15.70;73.08;98700.33;227384;1267;23117;-75
2024/04/10 02:32:46;;;;;;;7.20;3.10;;;;;;;15.73;72.90;98701.80;227379;1272;23172;-74
2024/04/10 02:37:50;;;;;;;8.10;3.30;;;;;;;15.73;72.83;98709.84;227362;1269;22562;-75
2024/04/10 02:43:04;;;;;;;6.20;3.50;;;;;;;15.67;72.82;98717.65;227465;1269;22614;-76
2024/04/10 02:48:06;;;;;;;6.80;3.00;;;;;;;15.54;72.56;98725.48;227436;1270;22542;-75
2024/04/10 02:53:08;;;;;;;6.30;3.20;;;;;;;15.42;72.68;98739.52;227223;1270;22595;-74
2024/04/10 02:58:11;;;;;;;9.00;3.10;;;;;;;15.26;72.67;98745.67;227344;1269;22520;-75
2024/04/10 03:03:12;;;;;;;6.10;2.90;;;;;;;15.09;72.77;98768.96;227345;1272;22555;-75
2024/04/10 03:08:14;;;;;;;6.90;2.90;;;;;;;14.97;72.77;98778.88;227375;1262;22554;-75
2024/04/10 03:13:16;;;;;;;9.70;2.60;;;;;;;14.84;72.91;98784.95;227321;1270;22547;-75
2024/04/10 03:18:18;;;;;;;6.80;2.80;;;;;;;14.73;73.12;98793.29;227202;1266;22606;-75
2024/04/10 03:23:21;;;;;;;5.20;2.50;;;;;;;14.60;73.02;98796.77;227384;1266;22541;-75
2024/04/10 03:28:23;;;;;;;6.20;2.50;;;;;;;14.48;72.98;98809.22;227372;1269;22554;-75
2024/04/10 03:33:26;;;;;;;5.20;2.20;;;;;;;14.36;72.77;98822.38;227356;1269;22540;-75
2024/04/10 03:38:28;;;;;;;3.30;2.10;;;;;;;14.24;72.98;98831.37;227380;1269;22584;-74
2024/04/10 03:43:30;;;;;;;7.00;2.00;;;;;;;14.12;72.94;98857.94;227150;1272;25272;-74
2024/04/10 03:48:32;;;;;;;5.00;1.90;;;;;;;14.00;73.12;98872.52;227279;1272;22570;-74
2024/04/10 03:53:34;;;;;;;10.10;2.20;;;;;;;13.89;73.29;98876.18;227307;1269;22533;-75
2024/04/10 03:58:37;;;;;;;5.70;2.40;;;;;;;13.80;73.51;98888.69;227287;1272;23701;-74
2024/04/10 04:03:38;;;;;;;7.00;2.50;;;;;;;13.69;73.75;98907.98;227090;1272;22568;-74
2024/04/10 04:08:41;;;;;;;3.30;2.00;;;;;;;13.57;74.18;98922.36;227354;1269;25260;-74
2024/04/10 04:13:43;;;;;;;4.70;2.10;;;;;;;13.46;74.23;98928.40;227298;1269;24206;-74
2024/04/10 04:18:45;;;;;;;4.50;1.90;;;;;;;13.34;73.68;98936.18;227287;1269;25284;-75
2024/04/10 04:23:46;;;;;;;5.70;2.00;;;;;;;13.25;73.55;98952.03;227375;1270;22538;-75
2024/04/10 04:28:49;;;;;;;6.40;1.90;;;;;;;13.20;73.60;98954.02;227310;1270;22535;-74
2024/04/10 04:33:54;;;;;;;7.80;1.90;;;;;;;13.16;73.41;98970.30;227349;1269;22537;-75
2024/04/10 04:38:56;;;;;;;7.20;2.30;;;;;;;13.13;73.42;98983.44;227140;1266;22540;-75
2024/04/10 04:43:58;;;;;;;5.90;2.00;;;;;;;13.07;72.99;98992.06;227360;1269;22562;-75
2024/04/10 04:49:00;;;;;;;3.70;1.00;;;;;;;13.04;72.94;99021.34;227361;1269;23008;-75
2024/04/10 04:54:02;;;;;;;4.50;1.00;;;;;;;12.98;71.72;99034.88;227125;1270;22548;-75
2024/04/10 04:59:04;;;;;;;1.80;0.90;;;;;;;12.87;71.06;99051.77;227395;1272;22577;-75
2024/04/10 05:09:27;;;;;;;4.10;0.90;;;;;;;12.58;71.12;99069.13;227373;1269;22584;-74
2024/04/10 05:14:30;;;;;;;3.20;0.80;;;;;;;12.48;71.02;99078.35;227092;1270;22531;-75
2024/04/10 05:19:32;;;;;;;5.30;1.20;;;;;;;12.37;71.01;99083.04;227387;1254;22557;-74
2024/04/10 05:24:33;;;;;;;2.80;1.00;;;;;;;12.25;70.96;99084.58;227343;1270;22567;-74
2024/04/10 05:29:35;;;;;;;3.80;1.30;;;;;;;12.16;70.94;99083.93;227181;1272;22539;-74
2024/04/10 05:34:37;;;;;;;3.30;1.00;;;;;;;12.11;70.93;99098.79;227312;1269;22588;-74
2024/04/10 05:39:39;;;;;;;2.90;1.20;;;;;;;12.07;70.71;99108.58;227241;1253;22552;-73
2024/04/10 05:44:41;;;;;;;2.10;1.50;;;;;;;12.06;70.64;99131.09;227294;1251;23020;-75
2024/04/10 05:49:43;;;;;;;2.40;1.40;;;;;;;12.04;70.38;99147.33;226761;1250;22643;-74
2024/04/10 05:54:53;;;;;;;2.30;1.30;;;;;;;12.02;70.63;99164.46;226792;1257;23926;-75
2024/04/10 05:59:55;;;;;;;5.90;1.90;;;;;;;11.98;70.80;99178.33;226903;1250;22571;-75
2024/04/10 06:04:57;;;;;;;4.30;1.60;;;;;;;11.90;70.77;99192.93;226647;1251;22529;-76
2024/04/10 06:09:59;;;;;;;6.30;1.80;;;;;;;11.80;70.99;99210.53;226408;1257;22585;-73
2024/04/10 06:15:01;;;;;;;6.10;1.80;;;;;;;11.69;71.22;99201.81;226339;1251;28493;-75
2024/04/10 06:20:05;;;;;;;3.10;1.60;;;;;;;11.62;71.24;99215.39;226435;1253;22543;-74
2024/04/10 06:25:07;;;;;;;5.80;1.60;;;;;;;11.58;71.48;99212.17;226556;1257;22533;-74
2024/04/10 06:30:09;;;;;;;6.80;1.80;;;;;;;11.57;71.51;99223.58;226233;1257;22680;-74
2024/04/10 06:35:12;;;;;;;4.20;1.70;;;;;;;11.59;71.65;99236.89;226372;1250;22539;-74
2024/04/10 06:40:14;;;;;;;4.10;2.10;;;;;;;11.58;71.85;99256.80;226394;1251;22572;-74
2024/04/10 06:45:16;;;;;;;2.90;1.60;;;;;;;11.53;71.69;99265.16;226673;1264;22631;-73
2024/04/10 06:50:18;;;;;;;2.70;1.90;;;;;;;11.45;72.13;99276.80;226407;1251;25298;-75
2024/04/10 06:55:20;;;;;;;3.60;1.80;;;;;;;11.35;72.15;99274.90;226374;1257;22537;-73
2024/04/10 07:00:22;;;;;;;4.30;2.00;;;;;;;11.27;72.60;99287.25;226451;1257;22539;-74
2024/04/10 07:05:23;;;;;;;4.10;1.80;;;;;;;11.17;72.77;99298.80;226285;1254;22545;-73
2024/04/10 07:10:26;;;;;;;5.60;1.90;;;;;;;11.12;72.72;99311.45;226151;1257;22601;-72
2024/04/10 07:15:27;;;;;;;3.70;1.90;;;;;;;11.08;73.17;99316.38;226405;1250;22538;-73
2024/04/10 07:20:31;;;;;;;5.90;1.90;;;;;;;11.07;73.25;99325.61;226444;1251;22551;-73
2024/04/10 07:25:33;;;;;;;3.80;1.70;;;;;;;11.08;73.32;99327.69;226289;1257;22536;-74
2024/04/10 07:30:35;;;;;;;5.30;2.20;;;;;;;11.07;73.27;99331.13;226298;1253;22551;-76
2024/04/10 07:35:37;;;;;;;6.80;1.90;;;;;;;11.07;73.36;99339.32;225936;1260;22573;-73
2024/04/10 07:40:38;;;;;;;4.70;1.90;;;;;;;11.09;73.35;99355.30;226171;1257;22913;-74
2024/04/10 07:45:40;;;;;;;6.20;2.20;;;;;;;11.13;73.28;99359.77;226275;1260;22537;-72
2024/04/10 07:50:42;;;;;;;7.70;2.30;;;;;;;11.15;73.41;99371.77;226389;1266;22547;-74
2024/04/10 07:55:44;;;;;;;3.80;1.90;;;;;;;11.13;73.48;99381.00;226318;1251;22527;-73
2024/04/10 08:00:46;;;;;;;6.60;1.90;;;;;;;11.13;73.41;99388.93;226501;1257;26021;-75
2024/04/10 08:05:58;;;;;;;6.50;2.30;;;;;;;11.14;73.43;99403.71;226468;1248;22532;-75
2024/04/10 08:11:07;;;;;;;4.50;2.10;;;;;;;11.20;73.59;99411.85;226618;1267;22581;-75
2024/04/10 08:16:12;;;;;;;3.40;2.00;;;;;;;11.24;73.39;99412.09;226573;1264;22547;-74
2024/04/10 08:21:14;;;;;;;5.00;1.70;;;;;;;11.28;73.29;99414.66;226533;1266;22559;-73
2024/04/10 08:26:19;;;;;;;3.60;2.20;;;;;;;11.31;73.44;99419.70;226718;1269;22570;-74
2024/04/10 08:31:24;;;;;;;3.40;1.80;;;;;;;11.39;73.48;99430.38;226644;1254;23211;-75
2024/04/10 08:36:27;;;;;;;4.50;2.00;;;;;;;11.46;73.16;99434.30;226894;1266;22585;-74
2024/04/10 08:41:29;;;;;;;6.00;2.30;;;;;;;11.50;73.05;99445.56;226975;1272;22540;-74
2024/04/10 08:46:34;;;;;;;5.20;2.10;;;;;;;11.52;73.09;99449.81;226876;1260;22599;-73
2024/04/10 08:51:40;;;;;;;4.80;1.90;;;;;;;11.53;72.87;99457.77;226738;1260;23183;-74
2024/04/10 08:56:42;;;;;;;5.10;1.90;;;;;;;11.57;73.25;99473.77;226608;1264;22539;-73
2024/04/10 09:01:44;;;;;;;4.20;1.90;;;;;;;11.61;72.74;99484.50;226483;1267;22583;-73
2024/04/10 09:06:49;;;;;;;8.70;2.40;;;;;;;11.64;72.68;99489.95;226672;1266;22557;-73
2024/04/10 09:11:51;;;;;;;3.30;1.80;;;;;;;11.73;72.87;99497.16;226856;1267;25407;-75
2024/04/10 09:17:01;;;;;;;4.80;2.30;;;;;;;11.79;73.00;99495.22;226776;1269;22523;-75
2024/04/10 09:22:03;;;;;;;4.80;2.00;;;;;;;11.85;72.81;99507.02;226769;1250;22557;-75
2024/04/10 09:27:11;;;;;;;4.90;2.00;;;;;;;11.93;72.43;99515.33;226822;1253;22556;-75
2024/04/10 09:32:16;;;;;;;5.50;2.10;;;;;;;11.99;72.54;99514.45;226765;1270;22569;-75
2024/04/10 09:37:20;;;;;;;4.10;1.90;;;;;;;12.02;72.36;99531.79;226844;1253;22546;-74
2024/04/10 09:42:33;;;;;;;4.80;1.80;;;;;;;11.95;71.96;99538.88;226728;1272;25363;-75
2024/04/10 09:47:36;;;;;;;4.90;1.80;;;;;;;11.93;72.18;99542.30;226993;1268;25364;-77
2024/04/10 09:52:40;;;;;;;4.00;2.10;;;;;;;12.01;72.16;99547.90;226895;1253;22605;-76
2024/04/10 09:57:43;;;;;;;5.90;2.40;;;;;;;12.00;72.14;99549.77;226989;1266;22574;-75
2024/04/10 10:02:45;;;;;;;4.90;2.10;;;;;;;12.03;71.78;99568.01;226828;1270;22725;-76
2024/04/10 10:07:47;;;;;;;10.20;2.30;;;;;;;11.99;71.94;99566.76;226882;1269;22536;-75
2024/04/10 10:12:49;;;;;;;3.60;2.50;;;;;;;12.02;71.86;99577.98;226882;1269;25398;-74
2024/04/10 10:17:54;;;;;;;3.70;2.50;;;;;;;12.00;71.66;99581.42;226883;1269;22551;-74
2024/04/10 10:23:05;;;;;;;5.00;2.30;;;;;;;11.98;71.50;99588.77;226531;1270;22951;-74
2024/04/10 10:28:11;;;;;;;5.10;2.50;;;;;;;11.94;71.62;99600.21;226573;1269;22570;-74
2024/04/10 10:33:17;;;;;;;4.20;2.30;;;;;;;11.94;71.52;99604.30;226503;1264;22685;-73
2024/04/10 10:38:19;;;;;;;3.30;2.50;;;;;;;12.05;71.95;99617.39;226681;1260;25363;-74
2024/04/10 10:43:21;;;;;;;3.80;2.40;;;;;;;12.13;71.61;99630.31;226829;1253;24212;-74
2024/04/10 10:48:23;;;;;;;4.50;2.80;;;;;;;12.16;71.41;99631.95;226732;1269;22545;-74
2024/04/10 10:53:26;;;;;;;4.40;2.80;;;;;;;12.23;71.42;99634.88;226887;1271;22539;-74
2024/04/10 10:58:29;;;;;;;4.70;3.30;;;;;;;12.36;71.36;99641.79;226551;1272;22613;-74
2024/04/10 11:03:32;;;;;;;5.30;3.90;;;;;;;12.42;71.45;99651.52;226734;1264;22522;-73
2024/04/10 11:08:34;;;;;;;5.90;3.60;;;;;;;12.42;70.92;99659.39;226630;1269;25998;-74
2024/04/10 11:13:35;;;;;;;4.90;3.70;;;;;;;12.30;70.82;99672.11;226837;1266;23270;-76
2024/04/10 11:18:37;;;;;;;8.60;4.10;;;;;;;12.28;71.01;99671.38;226933;1262;22532;-72
2024/04/10 11:23:39;;;;;;;4.90;3.30;;;;;;;12.26;71.07;99671.58;226730;1266;25326;-72
2024/04/10 11:28:41;;;;;;;3.90;3.50;;;;;;;12.25;71.05;99680.77;226642;1257;22680;-72
2024/04/10 11:33:43;;;;;;;5.80;3.90;;;;;;;12.27;70.78;99682.44;226578;1251;25335;-73
2024/04/10 11:38:48;;;;;;;6.00;3.90;;;;;;;12.32;71.15;99681.07;226520;1260;22531;-73
2024/04/10 11:43:50;;;;;;;4.90;3.30;;;;;;;12.38;70.90;99686.06;226711;1270;22541;-72
2024/04/10 11:48:52;;;;;;;4.20;3.40;;;;;;;12.41;70.67;99693.58;226755;1251;22603;-74
2024/04/10 11:53:54;;;;;;;4.60;2.90;;;;;;;12.40;70.61;99706.00;226614;1260;22935;-72
2024/04/10 11:58:56;;;;;;;4.80;3.30;;;;;;;12.38;70.71;99718.80;226722;1250;22538;-80
2024/04/10 12:03:57;;;;;;;6.50;3.70;;;;;;;12.32;70.50;99729.20;226667;1266;22536;-74
2024/04/10 12:08:59;;;;;;;5.20;3.50;;;;;;;12.28;70.63;99723.77;226711;1260;22522;-73
2024/04/10 12:14:01;;;;;;;7.60;3.50;;;;;;;12.22;70.54;99717.48;226779;1267;22545;-74
2024/04/10 12:19:05;;;;;;;6.60;4.00;;;;;;;12.23;70.83;99719.79;226819;1272;22560;-74
2024/04/10 12:24:07;;;;;;;4.60;3.20;;;;;;;12.27;70.84;99712.98;226868;1264;22544;-74
2024/04/10 12:29:09;;;;;;;5.20;3.20;;;;;;;12.32;70.97;99710.61;226701;1270;22542;-74
2024/04/10 12:34:11;;;;;;;5.30;3.30;;;;;;;12.41;70.72;99720.04;226692;1273;22758;-73
2024/04/10 12:39:13;;;;;;;4.00;3.60;;;;;;;12.46;70.50;99711.13;226788;1272;22570;-75
2024/04/10 12:44:18;;;;;;;5.10;3.00;;;;;;;12.54;70.34;99718.05;226771;1267;22629;-85
2024/04/10 12:49:20;;;;;;;5.90;2.70;;;;;;;12.62;70.04;99715.40;226847;1272;22539;-79
2024/04/10 12:54:22;;;;;;;4.50;2.80;;;;;;;12.72;70.09;99715.33;226641;1264;22551;-75
2024/04/10 12:59:24;;;;;;;3.50;3.00;;;;;;;12.77;69.41;99716.13;226533;1264;26511;-73
2024/04/10 13:04:26;;;;;;;3.70;2.90;;;;;;;12.80;69.42;99722.02;226592;1258;22544;-75
2024/04/10 13:09:28;;;;;;;3.50;2.60;;;;;;;12.81;69.32;99718.69;226861;1257;22548;-75
2024/04/10 13:14:30;;;;;;;3.20;2.70;;;;;;;12.82;69.33;99723.35;226579;1272;22539;-74
2024/04/10 13:19:34;;;;;;;2.80;2.50;;;;;;;12.90;69.81;99725.08;226773;1272;199339;-73
2024/04/10 13:24:36;;;;;;;4.00;2.60;;;;;;;12.87;69.09;99730.55;226852;1260;22541;-74
2024/04/10 13:29:38;;;;;;;3.80;2.90;;;;;;;12.78;68.92;99733.23;226853;1260;22546;-73
2024/04/10 13:34:40;;;;;;;5.40;2.50;;;;;;;12.73;69.16;99733.95;226932;1258;22535;-75
2024/04/10 13:39:42;;;;;;;4.00;2.60;;;;;;;12.80;69.02;99741.66;226771;1260;22527;-74
2024/04/10 13:44:45;;;;;;;3.80;2.60;;;;;;;12.86;69.10;99746.57;226861;1264;22545;-75
2024/04/10 13:49:47;;;;;;;4.00;2.40;;;;;;;12.88;68.81;99743.17;226864;1267;22544;-74
2024/04/10 13:54:50;;;;;;;2.30;2.10;;;;;;;12.88;68.58;99749.94;226782;1263;23044;-74
2024/04/10 13:59:52;;;;;;;3.20;2.40;;;;;;;12.86;68.68;99762.48;226735;1270;22566;-74
2024/04/10 14:04:54;;;;;;;4.30;2.90;;;;;;;12.77;68.62;99770.66;226637;1272;24391;-74
2024/04/10 14:09:56;;;;;;;3.10;2.70;;;;;;;12.66;68.51;99769.55;227024;1270;22535;-74
2024/04/10 14:14:58;;;;;;;3.10;2.60;;;;;;;12.57;68.88;99781.50;227072;1272;22567;-74
2024/04/10 14:20:00;;;;;;;2.90;2.50;;;;;;;12.49;69.15;99776.33;227190;1264;22583;-74
2024/04/10 14:25:02;;;;;;;3.30;2.50;;;;;;;12.44;69.09;99782.11;227310;1270;22580;-74
2024/04/10 14:30:04;;;;;;;5.10;2.40;;;;;;;12.38;69.21;99783.29;227308;1272;24254;-74
2024/04/10 14:35:06;;;;;;;3.60;2.80;;;;;;;12.38;68.96;99789.36;227360;1269;23012;-74
2024/04/10 14:40:11;;;;;;;5.10;2.70;;;;;;;12.32;68.90;99793.52;227397;1272;22546;-74
2024/04/10 14:45:16;;;;;;;4.20;2.80;;;;;;;12.29;69.36;99790.11;227296;1269;22532;-73
2024/04/10 14:50:18;;;;;;;5.30;2.60;;;;;;;12.28;69.20;99799.23;227252;1269;23732;-75
2024/04/10 14:55:20;;;;;;;5.50;2.70;;;;;;;12.25;69.00;99801.92;227349;1270;22560;-74
2024/04/10 15:00:22;;;;;;;2.50;2.30;;;;;;;12.22;69.40;99806.16;227293;1270;22695;-73
2024/04/10 15:05:23;;;;;;;6.10;2.40;;;;;;;12.16;69.16;99807.14;227108;1272;22522;-74
2024/04/10 15:10:25;;;;;;;3.30;2.50;;;;;;;12.13;69.47;99807.58;227290;1266;22544;-74
2024/04/10 15:15:27;;;;;;;4.00;2.40;;;;;;;12.08;69.45;99820.58;227263;1272;24232;-74
2024/04/10 15:20:29;;;;;;;4.40;2.30;;;;;;;12.07;69.70;99825.21;227273;1269;22536;-74
2024/04/10 15:25:31;;;;;;;4.00;2.60;;;;;;;12.00;69.45;99830.47;227324;1269;25259;-74
2024/04/10 15:30:32;;;;;;;5.60;2.20;;;;;;;11.92;69.57;99825.69;227298;1270;24380;-74
2024/04/10 15:35:34;;;;;;;5.20;2.00;;;;;;;11.85;69.48;99829.49;227323;1272;22543;-74
2024/04/10 15:40:36;;;;;;;12.80;2.90;;;;;;;11.78;69.63;99833.82;226996;1272;22622;-74
2024/04/10 15:45:38;;;;;;;5.50;2.10;;;;;;;11.75;69.67;99835.79;227112;1272;22541;-74
2024/04/10 15:50:40;;;;;;;6.50;2.40;;;;;;;11.74;69.85;99837.46;227329;1269;23322;-74
2024/04/10 15:55:42;;;;;;;3.90;2.20;;;;;;;11.75;69.87;99851.80;227373;1272;22538;-74
2024/04/10 16:00:44;;;;;;;3.40;2.20;;;;;;;11.73;69.83;99858.78;227347;1269;22642;-74
2024/04/10 16:05:46;;;;;;;4.00;2.80;;;;;;;11.68;69.52;99856.13;227327;1272;22546;-73
2024/04/10 16:10:48;;;;;;;4.60;2.80;;;;;;;11.68;69.45;99860.33;227317;1272;22537;-74
2024/04/10 16:15:51;;;;;;;4.40;2.50;;;;;;;11.67;69.88;99860.09;227206;1272;22534;-74
2024/04/10 16:21:05;;;;;;;6.90;2.60;;;;;;;11.68;69.83;99861.29;227302;1267;22638;-74
2024/04/10 16:26:18;;;;;;;3.70;2.90;;;;;;;11.69;70.11;99870.16;227039;1269;22531;-74
2024/04/10 16:31:20;;;;;;;4.70;3.40;;;;;;;11.64;70.41;99870.15;227177;1272;24277;-74
2024/04/10 16:36:22;;;;;;;4.20;2.80;;;;;;;11.61;69.92;99877.93;227359;1272;22549;-74
2024/04/10 16:41:24;;;;;;;6.80;3.00;;;;;;;11.53;69.91;99884.23;227300;1272;22607;-74
2024/04/10 16:46:26;;;;;;;6.10;3.20;;;;;;;11.45;70.23;99892.04;227294;1272;22554;-73
2024/04/10 16:51:28;;;;;;;5.00;2.70;;;;;;;11.38;70.27;99891.19;227264;1269;22532;-74
2024/04/10 16:56:30;;;;;;;4.60;2.90;;;;;;;11.32;70.54;99894.09;227335;1272;22582;-74
2024/04/10 17:01:32;;;;;;;6.50;3.20;;;;;;;11.28;70.41;99902.79;227309;1270;22535;-73
2024/04/10 17:06:33;;;;;;;4.40;3.00;;;;;;;11.23;70.42;99908.71;227268;1272;25364;-74
2024/04/10 17:11:35;;;;;;;5.10;2.90;;;;;;;11.18;70.79;99917.13;227305;1270;22538;-74
2024/04/10 17:16:37;;;;;;;5.80;3.30;;;;;;;11.14;70.75;99921.25;227305;1272;22533;-74
2024/04/10 17:21:53;;;;;;;5.80;3.10;;;;;;;11.10;71.01;99920.65;227116;1272;22538;-74
2024/04/10 17:26:55;;;;;;;5.80;3.30;;;;;;;11.07;70.94;99943.70;227271;1272;22550;-74
2024/04/10 17:31:58;;;;;;;5.50;3.30;;;;;;;11.05;71.19;99950.30;227293;1272;23054;-74
2024/04/10 17:37:00;;;;;;;5.40;3.10;;;;;;;11.03;71.29;99958.07;227102;1270;22549;-75
2024/04/10 17:42:03;;;;;;;5.80;3.00;;;;;;;11.02;71.53;99973.89;227339;1272;22736;-73
2024/04/10 17:47:05;;;;;;;6.40;3.10;;;;;;;11.00;71.31;99980.93;227144;1272;22646;-74
2024/04/10 17:52:07;;;;;;;9.20;3.40;;;;;;;11.00;71.38;99995.80;227362;1272;22559;-74
2024/04/10 17:57:09;;;;;;;6.60;3.40;;;;;;;11.01;71.48;100007.98;227279;1270;23430;-74
2024/04/10 18:02:11;;;;;;;6.50;3.90;;;;;;;11.01;71.47;100013.16;227293;1270;22618;-73
2024/04/10 18:07:13;;;;;;;4.90;3.10;;;;;;;11.01;71.80;100018.95;227293;1270;22536;-75
2024/04/10 18:12:16;;;;;;;5.90;3.60;;;;;;;11.00;71.55;100029.27;227281;1270;22683;-74
2024/04/10 18:17:18;;;;;;;6.40;3.30;;;;;;;11.00;71.75;100035.94;227343;1270;23039;-74
2024/04/10 18:22:20;;;;;;;5.50;3.40;;;;;;;11.00;71.83;100037.85;227315;1271;22543;-74
2024/04/10 18:27:23;;;;;;;6.00;3.60;;;;;;;11.00;71.77;100039.02;227306;1272;22617;-74
2024/04/10 18:32:26;;;;;;;6.10;4.10;;;;;;;11.01;72.06;100043.64;227189;1272;22542;-75
2024/04/10 18:37:31;;;;;;;6.40;4.00;;;;;;;11.02;72.01;100050.07;227171;1272;22532;-75
2024/04/10 18:42:33;;;;;;;5.00;4.00;;;;;;;11.02;71.90;100059.25;227397;1265;22570;-75
2024/04/10 18:47:35;;;;;;;6.80;4.40;;;;;;;11.01;72.23;100063.23;227335;1272;22554;-74
2024/04/10 18:52:37;;;;;;;6.90;4.00;;;;;;;11.01;72.15;100066.74;227411;1269;22538;-75
2024/04/10 18:57:39;;;;;;;7.10;4.20;;;;;;;11.00;72.47;100069.45;227320;1254;24232;-74
2024/04/10 19:02:41;;;;;;;6.80;4.70;;;;;;;11.01;72.26;100075.94;227149;1272;22535;-75
2024/04/10 19:07:43;;;;;;;7.60;5.10;;;;;;;11.01;72.66;100079.44;227317;1269;22539;-74
2024/04/10 19:12:45;;;;;;;8.10;5.70;;;;;;;11.01;72.39;100080.99;227311;1270;22568;-74
2024/04/10 19:17:50;;;;;;;8.50;5.30;;;;;;;11.00;72.67;100085.29;227362;1267;22545;-73
2024/04/10 19:22:52;;;;;;;9.30;5.90;;;;;;;11.02;72.48;100090.45;227370;1270;22546;-74
2024/04/10 19:27:54;;;;;;;8.60;6.10;;;;;;;11.02;72.45;100092.93;227132;1272;22566;-74
2024/04/10 19:32:58;;;;;;;7.90;6.40;;;;;;;11.02;72.45;100100.34;227342;1269;22558;-74
2024/04/10 19:38:01;;;;;;;9.90;6.60;;;;;;;11.03;72.39;100102.63;227350;1270;22546;-74
2024/04/10 19:43:04;;;;;;;10.00;6.50;;;;;;;11.03;72.89;100105.69;227363;1272;22541;-75
2024/04/10 19:48:07;;;;;;;8.40;6.50;;;;;;;11.04;72.82;100113.70;227293;1267;22543;-74
2024/04/10 19:53:09;;;;;;;11.40;7.10;;;;;;;11.03;72.70;100109.14;227325;1268;22539;-73
2024/04/10 19:58:12;;;;;;;10.70;6.90;;;;;;;11.05;72.71;100114.41;227157;1272;22582;-73
2024/04/10 20:03:14;;;;;;;9.10;7.30;;;;;;;11.05;72.78;100114.95;227347;1270;22536;-73
2024/04/10 20:08:17;;;;;;;10.00;7.70;;;;;;;11.06;72.65;100117.30;227353;1270;22545;-75
2024/04/10 20:13:19;;;;;;;7.90;7.10;;;;;;;11.07;72.95;100123.36;227313;1270;22555;-74
2024/04/10 20:18:21;;;;;;;10.30;7.70;;;;;;;11.10;72.92;100124.73;227271;1267;22569;-74
2024/04/10 20:23:23;;;;;;;11.70;7.80;;;;;;;11.12;72.76;100125.73;227251;1270;25338;-74
2024/04/10 20:28:25;;;;;;;9.80;7.30;;;;;;;11.13;72.94;100132.23;227337;1267;22561;-73
2024/04/10 20:33:32;;;;;;;11.10;7.60;;;;;;;11.14;72.95;100139.27;227277;1269;22545;-75
2024/04/10 20:38:35;;;;;;;10.50;8.10;;;;;;;11.13;72.85;100142.85;227308;1253;22549;-73
2024/04/10 20:43:39;;;;;;;11.80;9.70;;;;;;;11.12;72.80;100148.45;227351;1272;22730;-75
2024/04/10 20:48:47;;;;;;;11.80;9.00;;;;;;;11.11;73.02;100153.64;227100;1272;22552;-74
2024/04/10 20:53:49;;;;;;;13.60;9.60;;;;;;;11.09;73.19;100157.73;227400;1267;22723;-74
2024/04/10 20:58:52;;;;;;;12.10;9.20;;;;;;;11.03;73.47;100154.73;227365;1272;22541;-74
2024/04/10 21:03:53;;;;;;;13.80;8.80;;;;;;;11.00;73.58;100158.84;227096;1270;22658;-73
2024/04/10 22:13:16;;;;;;;15.40;10.20;;;;;;;10.80;74.70;100224.04;227372;1269;22536;-75
2024/04/10 22:29:00;;;;;;;13.40;10.00;;;;;;;10.85;75.05;100242.52;227314;1272;22692;-74
2024/04/10 22:34:04;;;;;;;14.50;9.70;;;;;;;10.85;74.90;100241.80;227335;1270;22557;-74
2024/04/10 22:39:08;;;;;;;13.50;9.20;;;;;;;10.84;74.95;100253.00;227351;1266;22573;-73
2024/04/10 22:44:15;;;;;;;15.20;9.30;;;;;;;10.83;74.81;100252.73;227353;1270;23019;-74
2024/04/10 22:49:17;;;;;;;12.50;9.50;;;;;;;10.83;74.84;100252.93;227175;1272;25319;-74
2024/04/10 22:54:18;;;;;;;18.00;10.60;;;;;;;10.82;74.94;100251.62;227303;1270;23768;-74
2024/04/10 22:59:20;;;;;;;14.70;10.40;;;;;;;10.81;74.87;100250.38;227313;1267;25384;-74
2024/04/10 23:04:22;;;;;;;13.00;9.40;;;;;;;10.79;75.08;100251.56;227287;1266;22573;-72
2024/04/10 23:09:24;;;;;;;13.00;9.60;;;;;;;10.77;75.20;100247.52;227376;1269;22546;-74
2024/04/10 23:14:26;;;;;;;12.90;9.10;;;;;;;10.76;75.10;100244.95;227346;1272;22576;-74
2024/04/10 23:19:28;;;;;;;13.60;9.50;;;;;;;10.76;74.97;100242.02;227327;1272;22473;-74
2024/04/10 23:24:32;;;;;;;13.80;9.80;;;;;;;10.74;75.05;100252.30;227312;1260;22538;-74
2024/04/10 23:29:34;;;;;;;13.20;9.00;;;;;;;10.72;75.21;100251.75;227374;1269;22535;-73
2024/04/10 23:34:36;;;;;;;12.50;9.20;;;;;;;10.70;75.17;100247.34;227400;1269;22565;-74
2024/04/10 23:39:40;;;;;;;10.70;8.40;;;;;;;10.68;75.23;100241.64;227189;1272;22538;-73
2024/04/10 23:44:42;;;;;;;14.90;8.60;;;;;;;10.62;74.92;100245.40;227217;1266;22543;-72
2024/04/10 23:49:44;;;;;;;14.00;10.30;;;;;;;10.52;75.39;100256.61;227377;1269;22539;-74
2024/04/10 23:54:46;;;;;;;13.70;10.00;;;;;;;10.44;75.34;100257.88;227354;1272;22578;-72
2024/04/10 23:59:47;;;;;;;15.00;11.30;;;;;;;10.41;75.76;100258.95;227382;1272;22674;-73
